createdAt,value
2023-09-02T00:01:35.237Z,17.07
2023-09-02T00:04:22.618Z,17.08
2023-09-02T00:07:10.540Z,17.12
2023-09-02T00:09:57.702Z,17.14
2023-09-02T00:12:45.097Z,17.09
2023-09-02T00:15:33.188Z,17.11
2023-09-02T00:18:21.130Z,17.11
2023-09-02T00:21:10.119Z,17.10
2023-09-02T00:24:04.176Z,17.15
2023-09-02T00:26:51.668Z,17.17
2023-09-02T00:29:43.265Z,17.15
2023-09-02T00:32:30.577Z,17.15
2023-09-02T00:35:19.491Z,17.15
2023-09-02T00:38:06.623Z,17.16
2023-09-02T00:41:01.085Z,17.13
2023-09-02T00:44:00.426Z,17.09
2023-09-02T00:53:34.308Z,17.10
2023-09-02T00:59:25.106Z,17.12
2023-09-02T01:02:11.175Z,17.10
2023-09-02T01:04:59.164Z,17.10
2023-09-02T01:07:45.230Z,17.07
2023-09-02T01:10:32.927Z,17.05
2023-09-02T01:13:18.827Z,17.06
2023-09-02T01:16:04.468Z,17.07
2023-09-02T01:18:49.778Z,17.06
2023-09-02T01:21:49.833Z,17.07
2023-09-02T01:24:53.633Z,17.05
2023-09-02T01:28:08.565Z,17.03
2023-09-02T01:30:55.372Z,17.02
2023-09-02T01:33:42.287Z,17.03
2023-09-02T01:36:29.322Z,17.02
2023-09-02T01:39:16.736Z,17.01
2023-09-02T01:42:02.518Z,17.02
2023-09-02T01:44:48.316Z,17.04
2023-09-02T01:47:33.922Z,17.04
2023-09-02T01:50:22.762Z,17.04
2023-09-02T01:53:09.991Z,17.07
2023-09-02T01:55:56.249Z,17.04
2023-09-02T01:58:41.328Z,17.04
2023-09-02T02:01:27.062Z,17.05
2023-09-02T02:04:24.441Z,17.06
2023-09-02T02:07:15.062Z,17.07
2023-09-02T02:10:04.443Z,17.08
2023-09-02T02:12:50.144Z,17.07
2023-09-02T02:15:35.627Z,17.07
2023-09-02T02:18:20.845Z,17.09
2023-09-02T02:21:06.766Z,17.14
2023-09-02T02:23:52.390Z,17.12
2023-09-02T02:26:37.764Z,17.13
2023-09-02T02:29:23.313Z,17.07
2023-09-02T02:32:08.660Z,17.04
2023-09-02T02:34:55.288Z,17.06
2023-09-02T02:37:40.320Z,17.08
2023-09-02T02:40:25.598Z,17.10
2023-09-02T02:43:11.101Z,17.12
2023-09-02T02:45:56.752Z,17.13
2023-09-02T02:48:41.851Z,17.14
2023-09-02T02:51:27.172Z,17.16
2023-09-02T02:54:12.772Z,17.16
2023-09-02T02:56:58.142Z,17.14
2023-09-02T02:59:43.665Z,17.14
2023-09-02T03:02:29.233Z,17.17
2023-09-02T03:05:14.466Z,17.17
2023-09-02T03:07:59.831Z,17.16
2023-09-02T03:10:45.288Z,17.18
2023-09-02T03:13:32.017Z,17.17
2023-09-02T03:16:17.238Z,17.17
2023-09-02T03:19:02.623Z,17.13
2023-09-02T03:21:49.046Z,17.09
2023-09-02T03:24:34.457Z,17.11
2023-09-02T03:27:19.974Z,17.13
2023-09-02T03:30:06.544Z,17.13
2023-09-02T03:32:51.616Z,17.12
2023-09-02T03:35:39.990Z,17.11
2023-09-02T03:38:25.005Z,17.11
2023-09-02T03:41:13.968Z,17.08
2023-09-02T03:44:00.294Z,17.08
2023-09-02T03:46:45.589Z,17.06
2023-09-02T03:49:30.863Z,17.06
2023-09-02T03:52:17.207Z,17.06
2023-09-02T03:55:02.671Z,17.06
2023-09-02T03:57:47.821Z,17.01
2023-09-02T04:00:33.482Z,16.98
2023-09-02T04:03:21.579Z,16.95
2023-09-02T04:06:06.877Z,16.93
2023-09-02T04:08:52.749Z,16.92
2023-09-02T04:11:38.093Z,16.92
2023-09-02T04:14:23.402Z,16.91
2023-09-02T04:17:08.974Z,16.92
2023-09-02T04:19:56.199Z,16.88
2023-09-02T04:22:41.221Z,16.84
2023-09-02T04:25:26.481Z,16.81
2023-09-02T04:28:11.919Z,16.79
2023-09-02T04:30:58.272Z,16.78
2023-09-02T04:33:43.604Z,16.77
2023-09-02T04:36:30.299Z,16.76
2023-09-02T04:39:15.734Z,16.75
2023-09-02T04:42:01.169Z,16.72
2023-09-02T04:44:46.559Z,16.70
2023-09-02T04:47:32.246Z,16.72
2023-09-02T04:50:17.360Z,16.74
2023-09-02T04:53:03.546Z,16.72
2023-09-02T04:55:49.495Z,16.66
2023-09-02T04:58:34.668Z,16.64
2023-09-02T05:01:20.120Z,16.65
2023-09-02T05:04:05.556Z,16.65
2023-09-02T05:06:50.985Z,16.62
2023-09-02T05:09:36.462Z,16.63
2023-09-02T05:12:21.977Z,16.63
2023-09-02T05:15:08.064Z,16.65
2023-09-02T05:17:53.709Z,16.64
2023-09-02T05:20:41.463Z,16.57
2023-09-02T05:23:27.194Z,16.60
2023-09-02T05:26:12.899Z,16.59
2023-09-02T05:28:57.868Z,16.56
2023-09-02T05:31:43.342Z,16.57
2023-09-02T05:34:28.532Z,16.58
2023-09-02T05:37:13.810Z,16.63
2023-09-02T05:39:59.330Z,16.67
2023-09-02T05:42:44.652Z,16.72
2023-09-02T05:45:29.998Z,16.71
2023-09-02T05:48:15.505Z,16.66
2023-09-02T05:51:00.779Z,16.75
2023-09-02T05:53:47.712Z,16.76
2023-09-02T05:56:34.931Z,16.77
2023-09-02T05:59:20.294Z,16.78
2023-09-02T06:02:05.466Z,16.84
2023-09-02T06:04:50.717Z,16.73
2023-09-02T06:07:35.757Z,16.74
2023-09-02T06:10:21.193Z,16.82
2023-09-02T06:13:06.321Z,16.92
2023-09-02T06:15:51.864Z,17.00
2023-09-02T06:18:37.373Z,17.04
2023-09-02T06:21:22.620Z,17.08
2023-09-02T06:24:08.522Z,17.08
2023-09-02T06:26:53.795Z,17.05
2023-09-02T06:29:38.933Z,17.04
2023-09-02T06:32:25.666Z,17.07
2023-09-02T06:35:16.159Z,17.11
2023-09-02T06:38:01.783Z,17.10
2023-09-02T06:40:47.437Z,17.17
2023-09-02T06:43:32.832Z,17.24
2023-09-02T06:46:20.871Z,17.30
2023-09-02T06:49:06.756Z,17.33
2023-09-02T06:51:52.099Z,17.38
2023-09-02T06:54:37.456Z,17.44
2023-09-02T06:57:22.658Z,17.43
2023-09-02T07:00:08.673Z,17.44
2023-09-02T07:02:54.006Z,17.51
2023-09-02T07:05:39.405Z,17.52
2023-09-02T07:08:24.672Z,17.59
2023-09-02T07:11:11.082Z,17.69
2023-09-02T07:13:58.203Z,17.74
2023-09-02T07:16:43.546Z,17.83
2023-09-02T07:19:29.114Z,17.87
2023-09-02T07:22:14.421Z,17.93
2023-09-02T07:24:59.923Z,17.99
2023-09-02T07:27:45.294Z,18.08
2023-09-02T07:30:30.758Z,18.15
2023-09-02T07:33:16.843Z,18.17
2023-09-02T07:36:13.527Z,18.20
2023-09-02T07:38:58.965Z,18.28
2023-09-02T07:41:44.366Z,18.37
2023-09-02T07:44:29.737Z,18.42
2023-09-02T07:47:15.022Z,18.46
2023-09-02T07:50:00.382Z,18.53
2023-09-02T07:52:45.778Z,18.63
2023-09-02T07:55:31.069Z,18.68
2023-09-02T07:58:16.413Z,18.76
2023-09-02T08:01:01.891Z,18.88
2023-09-02T08:03:47.110Z,18.99
2023-09-02T08:06:32.492Z,19.11
2023-09-02T08:09:20.508Z,19.21
2023-09-02T08:12:06.369Z,19.31
2023-09-02T08:14:51.384Z,19.43
2023-09-02T08:17:38.583Z,19.54
2023-09-02T08:20:24.386Z,19.63
2023-09-02T08:23:09.443Z,19.75
2023-09-02T08:25:54.768Z,19.87
2023-09-02T08:28:40.866Z,19.99
2023-09-02T08:31:25.976Z,20.13
2023-09-02T08:34:11.411Z,20.25
2023-09-02T08:36:56.744Z,20.34
2023-09-02T08:39:42.137Z,20.45
2023-09-02T08:42:27.870Z,20.54
2023-09-02T08:45:14.718Z,20.65
2023-09-02T08:48:06.444Z,20.76
2023-09-02T08:50:53.623Z,20.86
2023-09-02T08:53:39.978Z,20.93
2023-09-02T08:56:25.403Z,21.02
2023-09-02T08:59:11.394Z,21.12
2023-09-02T09:01:57.812Z,21.26
2023-09-02T09:04:43.437Z,21.33
2023-09-02T09:07:28.990Z,21.47
2023-09-02T09:10:17.158Z,21.57
2023-09-02T09:13:05.619Z,21.63
2023-09-02T09:15:52.425Z,21.67
2023-09-02T09:18:37.680Z,21.75
2023-09-02T09:21:22.974Z,21.84
2023-09-02T09:24:12.616Z,21.90
2023-09-02T09:27:00.542Z,21.95
2023-09-02T09:29:46.785Z,21.98
2023-09-02T09:32:33.068Z,22.06
2023-09-02T09:35:24.570Z,22.12
2023-09-02T09:38:09.993Z,22.22
2023-09-02T09:40:55.460Z,22.28
2023-09-02T09:43:41.152Z,22.34
2023-09-02T09:46:26.481Z,22.39
2023-09-02T09:49:31.683Z,22.46
2023-09-02T09:52:18.303Z,22.49
2023-09-02T09:55:03.862Z,22.54
2023-09-02T09:57:54.531Z,22.57
2023-09-02T10:00:40.139Z,22.61
2023-09-02T10:03:32.206Z,22.63
2023-09-02T10:06:17.955Z,22.64
2023-09-02T10:09:03.134Z,22.66
2023-09-02T10:11:48.559Z,22.65
2023-09-02T10:14:34.086Z,22.73
2023-09-02T10:17:19.718Z,22.77
2023-09-02T10:20:06.875Z,22.78
2023-09-02T10:22:53.245Z,22.82
2023-09-02T10:25:56.760Z,22.98
2023-09-02T10:28:43.504Z,23.10
2023-09-02T10:31:35.938Z,23.13
2023-09-02T10:34:50.884Z,23.17
2023-09-02T10:37:45.358Z,23.22
2023-09-02T10:40:40.307Z,23.23
2023-09-02T10:43:26.011Z,23.26
2023-09-02T10:46:12.591Z,23.30
2023-09-02T10:49:00.042Z,23.31
2023-09-02T10:51:45.691Z,23.30
2023-09-02T10:55:09.798Z,23.47
2023-09-02T10:57:57.310Z,23.63
2023-09-02T11:00:48.105Z,23.79
2023-09-02T11:03:50.582Z,23.92
2023-09-02T11:06:36.219Z,23.92
2023-09-02T11:09:49.854Z,23.97
2023-09-02T11:12:35.960Z,24.00
2023-09-02T11:15:21.736Z,24.02
2023-09-02T11:18:30.432Z,23.92
2023-09-02T11:21:44.876Z,23.94
2023-09-02T11:24:31.393Z,24.03
2023-09-02T11:27:16.740Z,24.13
2023-09-02T11:30:12.312Z,24.23
2023-09-02T11:32:58.588Z,24.21
2023-09-02T11:35:44.433Z,24.22
2023-09-02T11:38:29.695Z,24.21
2023-09-02T11:41:26.223Z,24.17
2023-09-02T11:44:13.349Z,24.19
2023-09-02T11:46:59.130Z,24.15
2023-09-02T11:49:45.420Z,23.93
2023-09-02T11:52:30.541Z,23.72
2023-09-02T11:55:17.388Z,23.59
2023-09-02T11:58:11.645Z,23.54
2023-09-02T12:00:56.884Z,23.47
2023-09-02T12:03:42.363Z,23.49
2023-09-02T12:06:31.348Z,23.59
2023-09-02T12:09:17.864Z,23.55
2023-09-02T12:12:04.056Z,23.46
2023-09-02T12:14:49.303Z,23.48
2023-09-02T12:17:34.871Z,23.36
2023-09-02T12:20:20.336Z,23.33
2023-09-02T12:23:06.634Z,23.23
2023-09-02T12:26:11.029Z,23.19
2023-09-02T12:29:03.470Z,23.22
2023-09-02T12:31:55.997Z,23.21
2023-09-02T12:34:41.494Z,23.22
2023-09-02T12:37:26.682Z,23.28
2023-09-02T12:40:16.196Z,23.30
2023-09-02T12:43:02.785Z,23.34
2023-09-02T12:45:48.216Z,23.30
2023-09-02T12:48:34.038Z,23.10
2023-09-02T12:51:28.780Z,22.96
2023-09-02T12:54:15.461Z,22.84
2023-09-02T12:57:00.858Z,22.76
2023-09-02T12:59:46.239Z,22.57
2023-09-02T13:02:32.791Z,22.56
2023-09-02T13:05:18.201Z,22.58
2023-09-02T13:08:03.833Z,22.60
2023-09-02T13:10:49.025Z,22.67
2023-09-02T13:13:34.427Z,22.73
2023-09-02T13:16:20.245Z,22.79
2023-09-02T13:19:05.858Z,22.84
2023-09-02T13:21:51.804Z,22.86
2023-09-02T13:24:47.999Z,22.89
2023-09-02T13:27:34.169Z,22.90
2023-09-02T13:30:24.165Z,22.94
2023-09-02T13:33:09.645Z,22.94
2023-09-02T13:35:58.158Z,22.97
2023-09-02T13:38:43.632Z,22.93
2023-09-02T13:41:29.381Z,22.93
2023-09-02T13:44:14.588Z,22.91
2023-09-02T13:47:07.959Z,22.98
2023-09-02T13:49:57.460Z,22.98
2023-09-02T13:52:44.913Z,22.95
2023-09-02T13:55:49.306Z,23.08
2023-09-02T13:58:36.422Z,23.11
2023-09-02T14:01:21.900Z,23.06
2023-09-02T14:04:07.485Z,22.86
2023-09-02T14:06:52.755Z,22.73
2023-09-02T14:09:43.994Z,22.71
2023-09-02T14:12:30.647Z,22.72
2023-09-02T14:15:16.597Z,22.66
2023-09-02T14:18:01.716Z,22.72
2023-09-02T14:20:47.063Z,22.77
2023-09-02T14:23:35.256Z,22.67
2023-09-02T14:26:20.495Z,22.56
2023-09-02T14:29:06.049Z,22.47
2023-09-02T14:31:51.369Z,22.43
2023-09-02T14:34:37.951Z,22.34
2023-09-02T14:37:23.365Z,22.33
2023-09-02T14:40:09.062Z,22.33
2023-09-02T14:42:54.211Z,22.43
2023-09-02T14:45:39.645Z,22.47
2023-09-02T14:48:26.158Z,22.38
2023-09-02T14:51:12.090Z,22.31
2023-09-02T14:53:57.471Z,22.27
2023-09-02T14:56:45.221Z,22.21
2023-09-02T14:59:31.001Z,22.10
2023-09-02T15:02:41.529Z,22.11
2023-09-02T15:05:28.383Z,22.01
2023-09-02T15:08:14.205Z,22.03
2023-09-02T15:11:01.474Z,22.05
2023-09-02T15:13:46.741Z,21.99
2023-09-02T15:16:36.285Z,21.98
2023-09-02T15:19:23.044Z,22.02
2023-09-02T15:22:08.118Z,22.04
2023-09-02T15:24:53.695Z,22.07
2023-09-02T15:27:39.811Z,22.13
2023-09-02T15:30:29.974Z,22.10
2023-09-02T15:33:15.483Z,22.12
2023-09-02T15:36:05.127Z,22.08
2023-09-02T15:38:50.630Z,22.05
2023-09-02T15:41:38.026Z,22.00
2023-09-02T15:44:23.464Z,21.91
2023-09-02T15:47:11.600Z,21.81
2023-09-02T15:49:56.914Z,21.79
2023-09-02T15:52:42.436Z,21.75
2023-09-02T15:55:27.740Z,21.75
2023-09-02T15:58:13.137Z,21.75
2023-09-02T16:00:58.631Z,21.72
2023-09-02T16:03:44.216Z,21.72
2023-09-02T16:06:29.751Z,21.73
2023-09-02T16:09:15.111Z,21.73
2023-09-02T16:12:00.598Z,21.73
2023-09-02T16:14:45.905Z,21.71
2023-09-02T16:17:31.770Z,21.71
2023-09-02T16:20:16.884Z,21.75
2023-09-02T16:23:02.260Z,21.80
2023-09-02T16:25:47.596Z,21.85
2023-09-02T16:28:32.944Z,21.81
2023-09-02T16:31:18.399Z,21.80
2023-09-02T16:34:05.090Z,21.83
2023-09-02T16:36:51.907Z,21.86
2023-09-02T16:39:37.370Z,21.85
2023-09-02T16:42:33.978Z,21.84
2023-09-02T16:45:19.878Z,21.82
2023-09-02T16:48:10.155Z,21.86
2023-09-02T16:50:55.656Z,21.88
2023-09-02T16:53:41.566Z,21.89
2023-09-02T16:56:26.946Z,21.89
2023-09-02T16:59:13.038Z,21.89
2023-09-02T17:01:59.731Z,21.87
2023-09-02T17:04:45.242Z,21.81
2023-09-02T17:07:30.594Z,21.75
2023-09-02T17:10:29.811Z,21.72
2023-09-02T17:13:15.552Z,21.66
2023-09-02T17:16:00.982Z,21.59
2023-09-02T17:18:47.154Z,21.54
2023-09-02T17:21:33.000Z,21.49
2023-09-02T17:24:18.623Z,21.44
2023-09-02T17:27:16.315Z,21.34
2023-09-02T17:30:06.914Z,21.25
2023-09-02T17:32:52.866Z,21.18
2023-09-02T17:35:38.257Z,21.12
2023-09-02T17:38:23.508Z,21.07
2023-09-02T17:41:09.042Z,21.01
2023-09-02T17:43:54.185Z,20.91
2023-09-02T17:46:39.311Z,20.82
2023-09-02T17:49:24.357Z,20.74
2023-09-02T17:52:09.676Z,20.68
2023-09-02T17:54:54.813Z,20.62
2023-09-02T17:57:40.289Z,20.55
2023-09-02T18:00:27.087Z,20.46
2023-09-02T18:03:12.527Z,20.41
2023-09-02T18:05:58.098Z,20.34
2023-09-02T18:11:33.342Z,20.20
2023-09-02T18:14:18.819Z,20.10
2023-09-02T18:17:04.290Z,20.02
2023-09-02T18:19:50.334Z,19.95
2023-09-02T18:22:35.567Z,19.86
2023-09-02T18:25:21.069Z,19.81
2023-09-02T18:28:06.654Z,19.76
2023-09-02T18:30:53.604Z,19.71
2023-09-02T18:33:40.779Z,19.63
2023-09-02T18:36:26.416Z,19.56
2023-09-02T18:39:11.854Z,19.48
2023-09-02T18:41:56.873Z,19.46
2023-09-02T18:44:43.194Z,19.47
2023-09-02T18:47:28.538Z,19.43
2023-09-02T18:50:13.842Z,19.38
2023-09-02T18:52:59.204Z,19.32
2023-09-02T18:55:44.498Z,19.27
2023-09-02T18:58:29.666Z,19.22
2023-09-02T19:01:15.653Z,19.17
2023-09-02T19:04:01.952Z,19.11
2023-09-02T19:06:47.320Z,19.03
2023-09-02T19:09:32.979Z,18.96
2023-09-02T19:12:18.073Z,18.91
2023-09-02T19:15:03.811Z,18.87
2023-09-02T19:17:48.925Z,18.84
2023-09-02T19:20:34.376Z,18.82
2023-09-02T19:23:20.218Z,18.80
2023-09-02T19:26:05.803Z,18.73
2023-09-02T19:28:51.129Z,18.70
2023-09-02T19:31:36.618Z,18.68
2023-09-02T19:34:24.020Z,18.65
2023-09-02T19:37:09.388Z,18.65
2023-09-02T19:39:55.066Z,18.61
2023-09-02T19:42:41.380Z,18.59
2023-09-02T19:45:26.689Z,18.56
2023-09-02T19:48:12.182Z,18.54
2023-09-02T19:50:57.593Z,18.50
2023-09-02T19:53:42.978Z,18.51
2023-09-02T19:56:28.255Z,18.50
2023-09-02T19:59:13.944Z,18.45
2023-09-02T20:02:00.952Z,18.41
2023-09-02T20:04:47.036Z,18.37
2023-09-02T20:07:32.528Z,18.33
2023-09-02T20:10:17.984Z,18.31
2023-09-02T20:13:03.643Z,18.29
2023-09-02T20:15:56.594Z,18.26
2023-09-02T20:18:43.123Z,18.23
2023-09-02T20:21:29.539Z,18.20
2023-09-02T20:24:14.688Z,18.17
2023-09-02T20:27:00.692Z,18.14
2023-09-02T20:29:46.123Z,18.09
2023-09-02T20:32:31.853Z,18.07
2023-09-02T20:35:16.912Z,18.05
2023-09-02T20:38:05.099Z,18.03
2023-09-02T20:40:51.677Z,18.02
2023-09-02T20:43:36.976Z,17.99
2023-09-02T20:46:22.387Z,17.97
2023-09-02T20:49:07.973Z,17.94
2023-09-02T20:51:53.664Z,17.90
2023-09-02T20:54:38.859Z,17.89
2023-09-02T20:57:24.453Z,17.91
2023-09-02T21:00:10.068Z,17.91
2023-09-02T21:02:58.671Z,17.88
2023-09-02T21:05:44.400Z,17.87
2023-09-02T21:08:31.540Z,17.85
2023-09-02T21:11:17.780Z,17.85
2023-09-02T21:14:03.118Z,17.85
2023-09-02T21:16:48.425Z,17.83
2023-09-02T21:19:37.727Z,17.80
2023-09-02T21:22:23.184Z,17.79
2023-09-02T21:25:11.302Z,17.77
2023-09-02T21:27:56.660Z,17.73
2023-09-02T21:30:42.223Z,17.70
2023-09-02T21:33:27.415Z,17.67
2023-09-02T21:36:17.513Z,17.66
2023-09-02T21:39:02.730Z,17.65
2023-09-02T21:41:48.110Z,17.61
2023-09-02T21:44:33.764Z,17.57
2023-09-02T21:47:19.092Z,17.55
2023-09-02T21:50:04.349Z,17.50
2023-09-02T21:52:49.926Z,17.47
2023-09-02T21:55:35.199Z,17.42
2023-09-02T21:58:21.077Z,17.40
2023-09-02T22:01:09.407Z,17.38
2023-09-02T22:03:54.989Z,17.33
2023-09-02T22:06:40.349Z,17.29
2023-09-02T22:09:25.843Z,17.26
2023-09-02T22:12:11.289Z,17.23
2023-09-02T22:14:56.788Z,17.20
2023-09-02T22:17:42.110Z,17.21
2023-09-02T22:20:27.602Z,17.20
2023-09-02T22:23:15.529Z,17.19
2023-09-02T22:26:04.066Z,17.19
2023-09-02T22:28:49.530Z,17.15
2023-09-02T22:31:34.816Z,17.15
2023-09-02T22:34:20.098Z,17.14
2023-09-02T22:37:05.646Z,17.13
2023-09-02T22:39:51.472Z,17.09
2023-09-02T22:42:37.011Z,17.12
2023-09-02T22:45:23.273Z,17.13
2023-09-02T22:48:09.283Z,17.10
2023-09-02T22:50:54.804Z,17.07
2023-09-02T22:53:41.254Z,17.05
2023-09-02T22:56:26.613Z,17.03
2023-09-02T22:59:12.013Z,17.05
2023-09-02T23:01:57.504Z,17.07
2023-09-02T23:04:42.741Z,17.07
2023-09-02T23:07:27.997Z,17.05
2023-09-02T23:10:13.648Z,17.04
2023-09-02T23:12:58.984Z,17.02
2023-09-02T23:15:44.279Z,17.02
2023-09-02T23:18:29.851Z,17.03
2023-09-02T23:21:19.316Z,17.03
2023-09-02T23:24:04.631Z,17.04
2023-09-02T23:26:49.940Z,17.02
2023-09-02T23:29:35.582Z,17.00
2023-09-02T23:32:25.921Z,16.99
2023-09-02T23:35:11.312Z,16.99
2023-09-02T23:37:56.223Z,16.97
2023-09-02T23:40:41.518Z,16.98
2023-09-02T23:43:26.938Z,16.97
2023-09-02T23:46:20.188Z,16.98
2023-09-02T23:49:05.405Z,16.98
2023-09-02T23:51:50.952Z,16.93
2023-09-02T23:54:37.204Z,16.93
2023-09-02T23:57:22.671Z,16.92
